Time;durP1;ratioP1;P1;durP2;ratioP2;P2;SDS_P1;SDS_P2;PMS_P1;PMS_P2;Temp;Humidity;BMP_temperature;BMP_pressure;BME280_temperature;BME280_humidity;BME280_pressure;Samples;Min_cycle;Max_cycle;Signal;HPM_P1;HPM_P2
2023/08/27 00:01:02;;;;;;;3.22;1.90;;;;;;;14.59;94.88;100923.06;5006228;28;20164;-72
2023/08/27 00:03:28;;;;;;;4.47;2.17;;;;;;;14.53;95.50;100915.41;5006773;28;20091;-71
2023/08/27 00:05:53;;;;;;;3.55;2.03;;;;;;;14.51;96.31;100917.44;5008314;28;20030;-71
2023/08/27 00:08:18;;;;;;;2.53;2.15;;;;;;;14.46;96.05;100900.50;5007208;28;20041;-71
2023/08/27 00:10:44;;;;;;;8.55;2.50;;;;;;;14.40;97.48;100896.41;5014025;28;20040;-71
2023/08/27 00:13:09;;;;;;;3.22;2.17;;;;;;;14.37;96.51;100890.38;5025405;28;20037;-71
2023/08/27 00:15:35;;;;;;;2.88;1.90;;;;;;;14.31;97.43;100880.78;5007565;28;20095;-71
2023/08/27 00:18:00;;;;;;;4.07;1.88;;;;;;;14.26;98.38;100873.00;5006923;28;20092;-71
2023/08/27 00:20:26;;;;;;;3.63;1.83;;;;;;;14.24;98.52;100857.72;5022042;28;20120;-71
2023/08/27 00:22:51;;;;;;;3.53;2.30;;;;;;;14.23;97.05;100870.53;5008302;28;20129;-71
2023/08/27 00:25:16;;;;;;;4.15;1.73;;;;;;;14.21;96.75;100849.78;5008508;28;20025;-71
2023/08/27 00:27:42;;;;;;;2.58;1.50;;;;;;;14.21;97.98;100853.38;5019421;28;20048;-71
2023/08/27 00:30:09;;;;;;;3.22;1.70;;;;;;;14.21;98.39;100842.44;5026092;28;20068;-71
2023/08/27 00:32:34;;;;;;;4.88;1.92;;;;;;;14.21;98.12;100839.69;5006784;28;20046;-72
2023/08/27 00:35:03;;;;;;;4.72;1.83;;;;;;;14.21;97.22;100839.69;5008015;28;20034;-71
2023/08/27 00:37:29;;;;;;;3.88;1.77;;;;;;;14.20;97.54;100835.22;5022484;28;20030;-71
2023/08/27 00:39:55;;;;;;;2.22;1.60;;;;;;;14.21;97.82;100827.88;5026162;28;20026;-71
2023/08/27 00:42:20;;;;;;;2.13;1.42;;;;;;;14.22;98.53;100829.59;5028547;28;20030;-71
2023/08/27 00:44:45;;;;;;;3.00;1.80;;;;;;;14.25;98.94;100832.94;5028979;28;20045;-71
2023/08/27 00:47:13;;;;;;;2.47;1.40;;;;;;;14.21;99.42;100831.47;5028096;28;20064;-71
2023/08/27 00:49:39;;;;;;;3.00;1.50;;;;;;;14.19;98.28;100819.81;5029514;28;20043;-71
2023/08/27 00:52:07;;;;;;;5.95;1.75;;;;;;;14.18;98.20;100822.69;5030479;28;20115;-71
2023/08/27 00:54:33;;;;;;;3.25;1.88;;;;;;;14.13;98.40;100817.63;5030943;28;20041;-71
2023/08/27 00:56:59;;;;;;;2.60;2.10;;;;;;;14.10;98.82;100820.63;5013130;28;20112;-71
2023/08/27 00:59:24;;;;;;;3.22;1.52;;;;;;;14.07;99.19;100823.63;5028551;28;20084;-71
2023/08/27 01:01:51;;;;;;;2.65;1.65;;;;;;;14.00;99.49;100814.22;5030348;28;20477;-72
2023/08/27 01:04:16;;;;;;;4.25;1.83;;;;;;;13.93;99.46;100815.75;5030523;28;20568;-72
2023/08/27 01:06:43;;;;;;;2.45;1.88;;;;;;;13.89;99.31;100817.00;5029251;28;20116;-72
2023/08/27 01:09:32;;;;;;;3.20;1.75;;;;;;;13.86;99.67;100811.84;5030594;28;20408;-72
2023/08/27 01:12:04;;;;;;;3.92;1.67;;;;;;;13.83;99.76;100815.69;5026466;28;20095;-71
2023/08/27 01:14:33;;;;;;;3.70;1.55;;;;;;;13.79;100.00;100809.59;5019789;28;20482;-71
2023/08/27 01:17:02;;;;;;;1.88;1.60;;;;;;;13.73;99.95;100807.41;5009855;28;20477;-72
2023/08/27 01:19:28;;;;;;;2.63;1.70;;;;;;;13.70;99.98;100801.34;5010008;28;20042;-72
2023/08/27 01:21:54;;;;;;;3.08;1.75;;;;;;;13.65;99.80;100798.13;5025614;28;20485;-72
2023/08/27 01:24:19;;;;;;;3.75;1.83;;;;;;;13.62;99.58;100807.47;5009645;28;20042;-72
2023/08/27 01:26:55;;;;;;;4.65;2.03;;;;;;;13.57;99.33;100803.38;5018295;28;20032;-72
2023/08/27 01:29:52;;;;;;;4.15;1.50;;;;;;;13.55;98.99;100806.25;5010309;28;20068;-72
2023/08/27 01:32:28;;;;;;;3.05;1.88;;;;;;;13.46;99.47;100809.78;5006856;28;20099;-72
2023/08/27 01:34:55;;;;;;;4.18;1.92;;;;;;;13.39;99.21;100806.72;5024087;28;20029;-71
2023/08/27 01:37:21;;;;;;;5.10;1.90;;;;;;;13.25;99.69;100799.69;5029606;28;20115;-72
2023/08/27 01:39:57;;;;;;;3.83;1.58;;;;;;;13.21;99.88;100797.31;5028785;28;20461;-71
2023/08/27 01:42:22;;;;;;;3.97;1.70;;;;;;;13.21;100.00;100809.09;5025522;28;20030;-71
2023/08/27 01:44:47;;;;;;;2.50;2.22;;;;;;;13.18;99.92;100803.88;5018678;28;20375;-72
2023/08/27 01:47:13;;;;;;;2.10;1.60;;;;;;;13.15;99.88;100806.00;5007846;28;20076;-72
2023/08/27 01:49:38;;;;;;;4.88;2.30;;;;;;;13.11;100.00;100799.09;5010442;28;20045;-71
2023/08/27 01:52:04;;;;;;;4.53;2.20;;;;;;;13.10;100.00;100795.44;4994004;28;20125;-71
2023/08/27 01:54:32;;;;;;;2.90;1.80;;;;;;;13.13;100.00;100799.81;5012167;28;20505;-71
2023/08/27 01:56:58;;;;;;;2.70;1.80;;;;;;;13.14;100.00;100790.59;5012195;28;20014;-72
2023/08/27 01:59:23;;;;;;;4.28;2.00;;;;;;;13.14;100.00;100790.59;5028072;28;20103;-72
2023/08/27 02:01:49;;;;;;;5.97;2.00;;;;;;;13.18;100.00;100792.09;5027843;28;20037;-72
2023/08/27 02:04:14;;;;;;;7.25;2.05;;;;;;;13.19;100.00;100791.09;5028031;28;20710;-72
2023/08/27 02:06:40;;;;;;;4.40;1.63;;;;;;;13.17;100.00;100783.03;5015907;28;20538;-72
2023/08/27 02:09:06;;;;;;;2.75;2.00;;;;;;;13.21;100.00;100784.50;5018962;28;20151;-72
2023/08/27 02:11:31;;;;;;;3.63;1.90;;;;;;;13.25;100.00;100787.88;5028288;28;20123;-71
2023/08/27 02:13:57;;;;;;;3.92;2.10;;;;;;;13.27;100.00;100792.22;5027551;28;20120;-72
2023/08/27 02:16:23;;;;;;;3.30;2.28;;;;;;;13.28;100.00;100790.34;5028035;28;20159;-71
2023/08/27 02:18:48;;;;;;;5.13;2.40;;;;;;;13.27;100.00;100785.88;5027969;28;20419;-72
2023/08/27 02:21:14;;;;;;;3.35;2.08;;;;;;;13.31;100.00;100783.75;5028118;28;20021;-72
2023/08/27 02:23:39;;;;;;;5.50;2.13;;;;;;;13.31;100.00;100775.56;5027436;28;20041;-72
2023/08/27 02:26:04;;;;;;;5.53;2.15;;;;;;;13.31;100.00;100779.16;5027585;28;20147;-72
2023/08/27 02:28:30;;;;;;;4.07;2.40;;;;;;;13.33;100.00;100790.81;5020793;28;20116;-71
2023/08/27 02:30:56;;;;;;;3.00;2.50;;;;;;;13.34;100.00;100788.97;5008840;28;20490;-71
2023/08/27 02:33:22;;;;;;;4.10;2.25;;;;;;;13.35;100.00;100791.56;5023355;28;20037;-71
2023/08/27 02:35:48;;;;;;;3.67;2.47;;;;;;;13.38;100.00;100791.31;5025177;28;20030;-71
2023/08/27 02:38:13;;;;;;;3.15;2.28;;;;;;;13.41;100.00;100784.72;5024578;28;20038;-72
2023/08/27 02:40:39;;;;;;;3.78;2.30;;;;;;;13.44;100.00;100790.78;5024788;28;20477;-72
2023/08/27 02:43:05;;;;;;;4.30;2.78;;;;;;;13.46;100.00;100794.25;5007616;28;20398;-72
2023/08/27 02:45:30;;;;;;;3.75;2.75;;;;;;;13.46;100.00;100790.66;5023840;28;20045;-71
2023/08/27 02:47:55;;;;;;;6.38;3.22;;;;;;;13.41;100.00;100780.09;5023088;28;20095;-72
2023/08/27 02:50:21;;;;;;;5.10;2.72;;;;;;;13.47;100.00;100785.03;5024321;28;20041;-72
2023/08/27 02:52:47;;;;;;;6.68;2.92;;;;;;;13.46;100.00;100796.97;5005367;28;20554;-73
2023/08/27 02:55:12;;;;;;;6.18;2.92;;;;;;;13.44;100.00;100796.25;4991410;28;20070;-72
2023/08/27 02:57:38;;;;;;;9.95;3.10;;;;;;;13.44;100.00;100807.19;5022317;28;20059;-72
2023/08/27 03:00:04;;;;;;;5.82;2.90;;;;;;;13.43;100.00;100790.91;5026590;28;20493;-73
2023/08/27 03:02:30;;;;;;;5.13;3.08;;;;;;;13.43;100.00;100796.38;5026126;28;20040;-72
2023/08/27 03:04:58;;;;;;;4.75;2.70;;;;;;;13.42;100.00;100786.44;5025926;28;20033;-73
2023/08/27 03:07:23;;;;;;;3.88;2.65;;;;;;;13.45;100.00;100797.97;5027185;28;20036;-73
2023/08/27 03:09:49;;;;;;;4.80;2.97;;;;;;;13.46;100.00;100805.19;5027745;28;20045;-73
2023/08/27 03:12:14;;;;;;;3.47;2.60;;;;;;;13.48;100.00;100797.72;5026459;28;20038;-72
2023/08/27 03:14:40;;;;;;;5.90;2.88;;;;;;;13.51;100.00;100796.59;5016542;28;20041;-73
2023/08/27 03:17:06;;;;;;;5.40;2.67;;;;;;;13.51;100.00;100799.31;5006319;28;20065;-73
2023/08/27 03:19:31;;;;;;;4.60;3.03;;;;;;;13.50;100.00;100793.00;5006761;28;20171;-73
2023/08/27 03:21:57;;;;;;;5.28;2.55;;;;;;;13.52;100.00;100801.94;5009128;28;20026;-73
2023/08/27 03:24:22;;;;;;;3.90;2.90;;;;;;;13.54;100.00;100810.00;5022889;28;20038;-72
2023/08/27 03:26:50;;;;;;;7.72;3.40;;;;;;;13.52;100.00;100806.50;5007425;28;20065;-72
2023/08/27 03:29:15;;;;;;;6.00;3.22;;;;;;;13.49;100.00;100804.94;5011594;28;20498;-72
2023/08/27 03:31:41;;;;;;;5.45;3.08;;;;;;;13.50;100.00;100803.91;5022418;28;20060;-72
2023/08/27 03:34:07;;;;;;;4.18;2.95;;;;;;;13.52;100.00;100807.41;5007888;28;20501;-72
2023/08/27 03:36:33;;;;;;;6.00;2.70;;;;;;;13.53;100.00;100811.00;5008791;28;20034;-72
2023/08/27 03:38:58;;;;;;;6.03;3.00;;;;;;;13.50;100.00;100798.44;5023594;28;20037;-70
2023/08/27 03:41:24;;;;;;;4.78;3.35;;;;;;;13.53;100.00;100800.94;5023648;28;20032;-71
2023/08/27 03:43:50;;;;;;;3.58;2.67;;;;;;;13.51;100.00;100791.13;5024853;28;20485;-71
2023/08/27 03:46:15;;;;;;;7.03;2.78;;;;;;;13.48;100.00;100788.66;5023314;28;20100;-72
2023/08/27 03:48:40;;;;;;;4.53;2.83;;;;;;;13.47;100.00;100787.78;5007168;28;20439;-71
2023/08/27 03:51:06;;;;;;;5.95;3.10;;;;;;;13.47;100.00;100784.19;5006929;28;20224;-71
2023/08/27 03:53:32;;;;;;;5.15;2.90;;;;;;;13.41;100.00;100777.38;5023032;28;20065;-71
2023/08/27 03:56:01;;;;;;;6.78;2.70;;;;;;;13.44;100.00;100771.66;5023519;28;20017;-71
2023/08/27 03:58:27;;;;;;;4.60;2.72;;;;;;;13.43;100.00;100771.78;5022634;28;20038;-72
2023/08/27 04:00:52;;;;;;;3.40;2.97;;;;;;;13.45;100.00;100770.66;5006121;28;20034;-71
2023/08/27 04:03:18;;;;;;;3.95;2.28;;;;;;;13.47;100.00;100767.78;5007338;28;20037;-71
2023/08/27 04:05:43;;;;;;;4.18;2.65;;;;;;;13.47;100.00;100765.03;5008097;28;20517;-71
2023/08/27 04:08:09;;;;;;;3.63;2.58;;;;;;;13.47;100.00;100765.03;4990151;28;20033;-71
2023/08/27 04:10:34;;;;;;;5.20;2.75;;;;;;;13.49;100.00;100765.78;5007661;28;20125;-71
2023/08/27 04:12:59;;;;;;;5.00;2.75;;;;;;;13.54;100.00;100763.53;5032826;28;20038;-71
2023/08/27 04:15:26;;;;;;;4.15;2.53;;;;;;;13.52;100.00;100763.69;5006206;28;20069;-71
2023/08/27 04:17:51;;;;;;;4.40;2.70;;;;;;;13.56;100.00;100757.94;5008978;28;20046;-71
2023/08/27 04:20:17;;;;;;;5.80;2.90;;;;;;;13.54;100.00;100758.06;5021138;28;20088;-71
2023/08/27 04:22:42;;;;;;;4.28;2.60;;;;;;;13.51;100.00;100755.59;5030097;28;20037;-71
2023/08/27 04:25:08;;;;;;;4.65;2.70;;;;;;;13.49;100.00;100769.41;5046599;28;20055;-71
2023/08/27 04:27:33;;;;;;;3.60;2.80;;;;;;;13.49;100.00;100776.72;5031047;28;20039;-71
2023/08/27 04:29:59;;;;;;;3.50;2.60;;;;;;;13.51;100.00;100772.00;5029364;28;20045;-71
2023/08/27 04:32:25;;;;;;;3.75;2.95;;;;;;;13.53;100.00;100783.69;5028450;28;20477;-71
2023/08/27 04:34:51;;;;;;;4.25;2.63;;;;;;;13.55;100.00;100780.78;5030199;28;20045;-71
2023/08/27 04:37:17;;;;;;;4.43;2.92;;;;;;;13.50;100.00;100762.06;5030523;28;20137;-71
2023/08/27 04:39:42;;;;;;;4.38;2.40;;;;;;;13.49;100.00;100760.34;5030060;28;20045;-71
2023/08/27 04:42:07;;;;;;;2.83;2.53;;;;;;;13.49;100.00;100763.94;5030959;28;20044;-71
2023/08/27 04:44:33;;;;;;;6.93;3.55;;;;;;;13.49;100.00;100772.13;5028956;28;20037;-71
2023/08/27 04:47:00;;;;;;;6.80;3.10;;;;;;;13.51;100.00;100764.66;5027088;28;20061;-71
2023/08/27 04:49:26;;;;;;;6.28;2.60;;;;;;;13.52;100.00;100768.25;5028846;28;20047;-71
2023/08/27 04:51:52;;;;;;;4.70;2.78;;;;;;;13.51;100.00;100774.72;5028990;28;20397;-71
2023/08/27 04:54:17;;;;;;;5.13;2.75;;;;;;;13.49;100.00;100780.31;5030051;28;20037;-71
2023/08/27 04:56:43;;;;;;;4.22;2.65;;;;;;;13.48;100.00;100780.47;5020954;28;20030;-71
2023/08/27 04:59:08;;;;;;;3.92;2.95;;;;;;;13.49;100.00;100790.41;5016423;28;20038;-71
2023/08/27 05:01:33;;;;;;;5.75;2.80;;;;;;;13.50;100.00;100792.13;5011611;28;20404;-71
2023/08/27 05:04:00;;;;;;;3.55;2.30;;;;;;;13.52;100.00;100790.13;5028686;28;20037;-71
2023/08/27 05:06:25;;;;;;;4.30;3.08;;;;;;;13.55;100.00;100794.47;5029259;28;20045;-71
2023/08/27 05:08:51;;;;;;;5.30;2.60;;;;;;;13.55;100.00;100792.59;5029209;28;20029;-71
2023/08/27 05:11:17;;;;;;;4.85;2.70;;;;;;;13.55;100.00;100798.06;5028448;28;20037;-70
2023/08/27 05:13:43;;;;;;;4.95;2.78;;;;;;;13.55;100.00;100795.31;5028161;28;20041;-71
2023/08/27 05:16:08;;;;;;;4.82;2.83;;;;;;;13.56;100.00;100801.66;5025520;28;20052;-70
2023/08/27 05:18:34;;;;;;;6.90;2.83;;;;;;;13.54;100.00;100801.81;5043688;28;20080;-71
2023/08/27 05:21:00;;;;;;;5.68;2.95;;;;;;;13.56;100.00;100798.94;5028956;28;20132;-71
2023/08/27 05:23:26;;;;;;;5.25;3.05;;;;;;;13.55;100.00;100791.72;5008192;28;20120;-71
2023/08/27 05:25:51;;;;;;;5.15;3.22;;;;;;;13.56;100.00;100788.84;5009299;28;20034;-71
2023/08/27 05:28:17;;;;;;;4.03;2.70;;;;;;;13.59;100.00;100790.47;5021454;28;20449;-71
2023/08/27 05:30:42;;;;;;;5.72;3.30;;;;;;;13.61;100.00;100792.06;5008987;28;20328;-71
2023/08/27 05:33:08;;;;;;;5.88;3.10;;;;;;;13.64;100.00;100791.81;5024344;28;20429;-71
2023/08/27 05:35:33;;;;;;;3.72;2.67;;;;;;;13.68;100.00;100784.22;5025423;28;20088;-71
2023/08/27 05:37:59;;;;;;;6.35;2.83;;;;;;;13.69;100.00;100784.06;4992569;28;20112;-71
2023/08/27 05:40:24;;;;;;;4.93;3.10;;;;;;;13.76;100.00;100788.03;5025801;28;20481;-71
2023/08/27 05:42:50;;;;;;;4.38;2.63;;;;;;;13.79;100.00;100793.19;5025728;28;20034;-71
2023/08/27 05:45:15;;;;;;;6.00;3.00;;;;;;;13.85;100.00;100799.13;5008686;28;20038;-71
2023/08/27 05:47:41;;;;;;;4.25;2.72;;;;;;;13.90;100.00;100794.16;5009134;28;20038;-71
2023/08/27 05:50:06;;;;;;;6.05;3.15;;;;;;;13.89;100.00;100787.78;5009798;28;20375;-72
2023/08/27 05:52:32;;;;;;;4.07;2.72;;;;;;;13.90;100.00;100791.44;5009504;28;20037;-71
2023/08/27 05:54:57;;;;;;;7.57;2.80;;;;;;;13.92;100.00;100800.34;5025536;28;20536;-71
2023/08/27 05:57:23;;;;;;;3.22;2.78;;;;;;;13.94;100.00;100792.88;5024703;28;20022;-71
2023/08/27 05:59:48;;;;;;;6.15;3.10;;;;;;;13.94;100.00;100788.28;5019713;28;20049;-71
2023/08/27 06:02:17;;;;;;;5.10;3.13;;;;;;;13.94;100.00;100781.94;5028775;28;20115;-71
2023/08/27 06:04:42;;;;;;;3.55;2.88;;;;;;;13.92;100.00;100773.88;5016838;28;20088;-71
2023/08/27 06:07:09;;;;;;;4.78;3.17;;;;;;;14.00;100.00;100776.81;5024729;28;20034;-71
2023/08/27 06:09:35;;;;;;;6.00;3.15;;;;;;;14.11;100.00;100780.44;5024032;28;20022;-71
2023/08/27 06:12:02;;;;;;;9.35;3.83;;;;;;;14.17;100.00;100777.16;5026716;28;20032;-71
2023/08/27 06:14:27;;;;;;;5.13;3.05;;;;;;;14.20;100.00;100769.56;5027072;28;20022;-71
2023/08/27 06:16:53;;;;;;;3.40;2.60;;;;;;;14.20;100.00;100772.28;5010246;28;20088;-71
2023/08/27 06:19:18;;;;;;;5.60;2.85;;;;;;;14.21;100.00;100773.16;5028253;28;20026;-70
2023/08/27 06:21:43;;;;;;;5.75;3.15;;;;;;;14.20;100.00;100765.97;5026191;28;20044;-71
2023/08/27 06:24:09;;;;;;;4.15;2.30;;;;;;;14.21;100.00;100763.06;5027678;28;20037;-71
2023/08/27 06:26:34;;;;;;;4.32;2.97;;;;;;;14.19;100.00;100766.97;5035799;28;20547;-71
2023/08/27 06:29:01;;;;;;;6.47;2.75;;;;;;;14.17;100.00;100763.47;5023782;28;20095;-71
2023/08/27 06:31:26;;;;;;;4.15;2.65;;;;;;;14.15;100.00;100760.03;5023489;28;20512;-72
2023/08/27 06:33:52;;;;;;;6.78;2.97;;;;;;;14.09;100.00;100761.44;4990782;28;20042;-71
2023/08/27 06:36:17;;;;;;;8.13;2.70;;;;;;;14.12;100.00;100760.28;5024905;28;20096;-71
2023/08/27 06:38:42;;;;;;;6.25;2.83;;;;;;;14.13;100.00;100757.44;5027332;28;20030;-71
2023/08/27 06:41:09;;;;;;;3.90;2.95;;;;;;;14.10;100.00;100763.19;5022553;28;20100;-71
2023/08/27 06:43:35;;;;;;;5.18;3.58;;;;;;;14.13;100.00;100760.19;5039837;28;20057;-70
2023/08/27 06:46:03;;;;;;;7.70;3.13;;;;;;;14.15;100.00;100758.16;5041915;28;20552;-71
2023/08/27 06:48:28;;;;;;;5.45;3.30;;;;;;;14.15;100.00;100765.50;5025174;28;20069;-71
2023/08/27 06:50:54;;;;;;;6.75;3.30;;;;;;;14.15;100.00;100769.09;5008811;28;20079;-71
2023/08/27 06:53:20;;;;;;;6.85;3.58;;;;;;;14.18;100.00;100765.25;5028915;28;20045;-70
2023/08/27 06:55:46;;;;;;;6.90;3.25;;;;;;;14.20;100.00;100771.44;5022564;28;20022;-71
2023/08/27 06:58:12;;;;;;;9.88;4.05;;;;;;;14.21;100.00;100765.81;5000377;28;20056;-70
2023/08/27 07:00:44;;;;;;;7.18;3.67;;;;;;;14.23;100.00;100765.69;5044719;28;20412;-70
2023/08/27 07:03:10;;;;;;;5.93;4.15;;;;;;;14.24;100.00;100760.06;5053608;28;20034;-70
2023/08/27 07:05:35;;;;;;;6.68;3.80;;;;;;;14.28;100.00;100768.88;5024788;28;20393;-71
2023/08/27 07:08:01;;;;;;;6.60;3.55;;;;;;;14.28;100.00;100771.63;5039554;28;20492;-71
2023/08/27 07:10:26;;;;;;;7.93;4.05;;;;;;;14.29;100.00;100770.59;5042567;28;20185;-71
2023/08/27 07:12:52;;;;;;;9.27;3.80;;;;;;;14.32;100.00;100780.44;5042886;28;20500;-71
2023/08/27 07:15:17;;;;;;;7.05;3.92;;;;;;;14.36;100.00;100780.03;5038787;28;20041;-70
2023/08/27 07:17:43;;;;;;;6.43;4.00;;;;;;;14.39;100.00;100779.72;5038280;28;20037;-71
2023/08/27 07:20:09;;;;;;;8.35;4.10;;;;;;;14.44;100.00;100784.78;5023046;28;20029;-70
2023/08/27 07:22:35;;;;;;;8.13;4.75;;;;;;;14.47;100.00;100776.31;5027133;28;20067;-71
2023/08/27 07:25:00;;;;;;;6.85;3.92;;;;;;;14.56;100.00;100782.88;5023272;28;20490;-71
2023/08/27 07:27:26;;;;;;;8.82;4.53;;;;;;;14.57;100.00;100774.50;5039292;28;20030;-71
2023/08/27 07:29:53;;;;;;;8.07;3.60;;;;;;;14.62;100.00;100766.72;5030672;28;20457;-71
2023/08/27 07:32:18;;;;;;;7.28;4.70;;;;;;;14.62;100.00;100765.88;5038782;28;20048;-71
2023/08/27 07:34:44;;;;;;;7.60;4.38;;;;;;;14.66;100.00;100768.19;5039370;28;20427;-71
2023/08/27 07:37:10;;;;;;;6.50;4.68;;;;;;;14.69;100.00;100775.28;5039357;28;20042;-71
2023/08/27 07:39:35;;;;;;;10.63;4.55;;;;;;;14.73;100.00;100779.44;5054052;28;20148;-71
2023/08/27 07:42:02;;;;;;;6.80;4.75;;;;;;;14.80;100.00;100780.63;5025929;28;20555;-71
2023/08/27 07:44:28;;;;;;;7.00;4.25;;;;;;;14.90;100.00;100787.00;5033575;28;20033;-71
2023/08/27 07:46:54;;;;;;;10.38;5.38;;;;;;;14.96;100.00;100783.69;5023122;28;20397;-71
2023/08/27 07:49:19;;;;;;;10.73;5.60;;;;;;;15.15;100.00;100785.59;5022698;28;20026;-71
2023/08/27 07:51:46;;;;;;;9.35;4.95;;;;;;;15.37;100.00;100768.00;5022395;28;20406;-71
2023/08/27 07:54:11;;;;;;;7.20;4.90;;;;;;;15.49;100.00;100777.84;5022588;28;20446;-71
2023/08/27 07:56:36;;;;;;;9.82;6.00;;;;;;;15.52;100.00;100776.66;5022499;28;20041;-71
2023/08/27 07:59:02;;;;;;;9.35;5.25;;;;;;;15.53;100.00;100775.69;5021912;28;20038;-71
2023/08/27 08:01:27;;;;;;;7.53;4.38;;;;;;;15.60;100.00;100775.94;5021529;28;20153;-71
2023/08/27 08:03:53;;;;;;;11.05;4.72;;;;;;;15.60;100.00;100774.06;5021826;28;20409;-72
2023/08/27 08:06:18;;;;;;;10.98;4.80;;;;;;;15.59;100.00;100771.47;5024151;28;20050;-71
2023/08/27 08:08:44;;;;;;;9.45;5.55;;;;;;;15.63;100.00;100765.56;5022429;28;20041;-71
2023/08/27 08:11:09;;;;;;;10.98;5.07;;;;;;;15.72;100.00;100763.84;5014363;28;20034;-72
2023/08/27 08:13:36;;;;;;;6.45;4.88;;;;;;;15.98;100.00;100766.81;5014850;28;20195;-71
2023/08/27 08:16:02;;;;;;;8.77;5.57;;;;;;;16.12;100.00;100769.09;5010113;28;20041;-71
2023/08/27 08:18:27;;;;;;;8.40;5.47;;;;;;;16.14;100.00;100774.47;5009163;28;20037;-70
2023/08/27 08:20:54;;;;;;;9.02;5.68;;;;;;;16.13;100.00;100772.69;4992464;28;20041;-72
2023/08/27 08:23:19;;;;;;;5.88;4.90;;;;;;;16.25;100.00;100777.00;5010832;28;20038;-71
2023/08/27 08:25:49;;;;;;;11.18;5.20;;;;;;;16.33;100.00;100774.38;5010169;28;20038;-71
2023/08/27 08:28:15;;;;;;;8.80;5.00;;;;;;;16.52;100.00;100773.44;5008327;28;20492;-71
2023/08/27 08:30:45;;;;;;;8.45;4.80;;;;;;;16.73;99.68;100778.72;5009509;28;20034;-71
2023/08/27 08:33:10;;;;;;;7.97;4.50;;;;;;;16.98;97.77;100780.75;5018793;28;20041;-71
2023/08/27 08:35:36;;;;;;;10.77;4.65;;;;;;;17.27;98.03;100783.28;5028254;28;20057;-72
2023/08/27 08:38:01;;;;;;;12.80;4.70;;;;;;;17.41;95.61;100778.28;5029958;28;20543;-71
2023/08/27 08:40:26;;;;;;;6.22;3.75;;;;;;;17.63;95.86;100780.56;5015890;28;20460;-71
2023/08/27 08:42:59;;;;;;;5.88;4.50;;;;;;;17.81;94.07;100780.53;5009881;28;20042;-72
2023/08/27 08:45:32;;;;;;;5.82;3.72;;;;;;;17.75;92.52;100793.06;5009573;28;20045;-71
2023/08/27 08:48:00;;;;;;;10.02;3.63;;;;;;;17.87;90.81;100788.16;5009123;28;20045;-71
2023/08/27 08:50:26;;;;;;;11.38;3.83;;;;;;;18.07;91.44;100778.69;5009478;28;20146;-72
2023/08/27 08:52:53;;;;;;;10.63;3.70;;;;;;;18.13;91.64;100773.53;5008727;28;20036;-72
2023/08/27 08:55:21;;;;;;;7.80;3.35;;;;;;;18.05;86.59;100782.63;5010173;28;20042;-71
2023/08/27 08:57:55;;;;;;;6.88;3.03;;;;;;;17.96;86.74;100786.34;5029061;28;20520;-71
2023/08/27 09:00:21;;;;;;;5.60;2.60;;;;;;;17.90;82.90;100770.47;5012451;28;20143;-72
2023/08/27 09:02:47;;;;;;;5.28;2.42;;;;;;;17.98;86.09;100774.13;5009233;28;20042;-72
2023/08/27 09:05:16;;;;;;;5.35;2.28;;;;;;;18.04;84.48;100780.88;5007902;28;20041;-71
2023/08/27 09:07:43;;;;;;;4.07;2.10;;;;;;;18.13;84.71;100768.91;5009491;28;20096;-72
2023/08/27 09:10:10;;;;;;;5.18;2.20;;;;;;;18.37;84.45;100762.66;5009620;28;20018;-71
2023/08/27 09:12:39;;;;;;;5.72;2.17;;;;;;;18.57;79.72;100763.31;5009109;28;20041;-71
2023/08/27 09:15:09;;;;;;;4.93;2.22;;;;;;;18.80;81.52;100756.22;5009152;28;20569;-71
2023/08/27 09:17:35;;;;;;;4.07;2.35;;;;;;;19.13;79.42;100759.06;5008103;28;20440;-70
2023/08/27 09:20:01;;;;;;;6.63;2.35;;;;;;;19.43;80.10;100759.44;5008968;28;20038;-72
2023/08/27 09:22:27;;;;;;;5.35;2.10;;;;;;;19.66;79.41;100752.25;5008036;28;20107;-71
2023/08/27 09:24:52;;;;;;;5.53;2.25;;;;;;;19.66;75.75;100751.38;5008858;28;20026;-72
2023/08/27 09:27:18;;;;;;;9.93;2.17;;;;;;;19.95;75.95;100745.31;5009127;28;20724;-72
2023/08/27 09:29:45;;;;;;;2.80;1.80;;;;;;;20.22;74.41;100742.16;5016491;28;20029;-72
2023/08/27 09:32:22;;;;;;;3.72;1.95;;;;;;;20.32;73.50;100745.59;5026005;28;20044;-72
2023/08/27 09:34:48;;;;;;;6.82;1.85;;;;;;;20.29;70.79;100745.09;5009186;28;20044;-72
2023/08/27 09:37:13;;;;;;;5.20;2.10;;;;;;;20.09;73.69;100730.78;5008785;28;20034;-72
2023/08/27 09:39:39;;;;;;;5.47;2.15;;;;;;;19.78;71.30;100734.31;5007202;28;20147;-72
2023/08/27 09:42:05;;;;;;;7.20;1.90;;;;;;;19.67;74.82;100728.25;5008667;28;20046;-71
2023/08/27 09:44:31;;;;;;;4.40;2.13;;;;;;;19.64;76.57;100734.16;5006946;28;20033;-72
2023/08/27 09:47:06;;;;;;;5.57;2.15;;;;;;;19.65;75.03;100728.44;5007557;28;20041;-72
2023/08/27 09:49:31;;;;;;;5.75;1.90;;;;;;;19.77;77.99;100721.53;5008339;28;20087;-72
2023/08/27 09:51:58;;;;;;;4.35;1.70;;;;;;;20.11;75.96;100725.97;5019050;28;20486;-71
2023/08/27 09:54:29;;;;;;;3.88;1.70;;;;;;;20.35;73.32;100723.13;5008341;28;20050;-72
2023/08/27 09:56:59;;;;;;;4.65;1.52;;;;;;;20.55;73.08;100722.75;5008415;28;20042;-72
2023/08/27 09:59:25;;;;;;;3.45;1.65;;;;;;;20.79;70.52;100724.53;5007994;28;20042;-72
2023/08/27 10:01:51;;;;;;;6.30;1.65;;;;;;;20.91;65.92;100720.31;5007806;28;20033;-72
2023/08/27 10:04:18;;;;;;;4.10;1.55;;;;;;;21.25;71.76;100714.41;5007147;28;20087;-72
2023/08/27 10:06:43;;;;;;;4.55;1.27;;;;;;;21.50;68.77;100725.34;5023320;28;20042;-72
2023/08/27 10:09:09;;;;;;;4.32;1.48;;;;;;;21.67;65.19;100726.91;5008313;28;20048;-72
2023/08/27 10:11:35;;;;;;;4.75;1.40;;;;;;;21.75;64.89;100726.81;5007998;28;20470;-72
2023/08/27 10:14:03;;;;;;;4.50;1.45;;;;;;;21.86;63.15;100723.59;5007911;28;20030;-72
2023/08/27 10:16:30;;;;;;;5.32;1.40;;;;;;;22.01;69.49;100718.09;5007317;28;20041;-72
2023/08/27 10:18:56;;;;;;;4.55;1.50;;;;;;;22.20;65.08;100721.41;5007114;28;20038;-72
2023/08/27 10:21:22;;;;;;;4.35;1.40;;;;;;;22.42;66.75;100717.66;5006693;28;20038;-73
2023/08/27 10:23:48;;;;;;;4.43;1.30;;;;;;;22.62;62.16;100716.03;5007275;28;20036;-72
2023/08/27 10:26:14;;;;;;;4.57;1.60;;;;;;;22.71;63.37;100716.81;5006267;28;20061;-73
2023/08/27 10:28:40;;;;;;;3.97;1.63;;;;;;;22.60;62.85;100720.91;5007537;28;20037;-73
2023/08/27 10:31:06;;;;;;;4.63;1.27;;;;;;;22.20;62.73;100715.88;5027330;28;20104;-73
2023/08/27 10:33:32;;;;;;;3.15;1.50;;;;;;;21.88;64.10;100718.75;5026375;28;20051;-72
2023/08/27 10:36:05;;;;;;;4.10;1.80;;;;;;;21.73;66.53;100716.97;5024426;28;20113;-72
2023/08/27 10:38:33;;;;;;;3.83;1.42;;;;;;;21.57;64.16;100727.16;5007550;28;20370;-72
2023/08/27 10:40:59;;;;;;;4.53;1.17;;;;;;;21.37;65.15;100718.50;5006348;28;20037;-72
2023/08/27 10:43:32;;;;;;;3.78;1.52;;;;;;;21.08;65.22;100733.03;5007698;28;20473;-72
2023/08/27 10:46:13;;;;;;;3.35;1.30;;;;;;;20.89;66.36;100730.72;5007275;28;20049;-72
2023/08/27 10:48:39;;;;;;;6.38;1.48;;;;;;;20.71;66.63;100736.50;5006578;28;20099;-72
2023/08/27 10:51:12;;;;;;;3.03;1.20;;;;;;;20.66;66.38;100738.06;5010141;28;20021;-72
2023/08/27 10:53:49;;;;;;;4.53;1.30;;;;;;;20.83;67.79;100732.28;5027368;28;20041;-72
2023/08/27 10:56:38;;;;;;;6.07;1.75;;;;;;;21.32;68.02;100734.81;5012415;28;20042;-72
2023/08/27 10:59:26;;;;;;;4.47;1.80;;;;;;;21.77;66.26;100723.88;5006879;28;20128;-72
2023/08/27 11:02:09;;;;;;;1.65;1.05;;;;;;;22.14;63.53;100715.56;5006789;28;20121;-72
2023/08/27 11:04:36;;;;;;;2.97;1.30;;;;;;;22.46;60.10;100723.69;5007368;28;20064;-72
2023/08/27 11:07:11;;;;;;;3.90;1.20;;;;;;;22.46;58.88;100727.31;5005806;28;20041;-72
2023/08/27 11:10:02;;;;;;;2.65;0.90;;;;;;;22.38;61.07;100727.41;5007573;28;20069;-71
2023/08/27 11:12:33;;;;;;;4.77;1.13;;;;;;;22.04;58.99;100730.72;5006871;28;20577;-71
2023/08/27 11:15:13;;;;;;;4.10;1.00;;;;;;;21.64;61.47;100746.66;5017735;28;20405;-72
2023/08/27 11:17:40;;;;;;;0.93;0.60;;;;;;;21.13;56.42;100773.97;5024833;28;20041;-72